< < Back
Terminal Aerodrome Forecast


Current Version              Previous Versions:   1  2  3  4  5  6  7  8  9  

Terminal Aerodrome Forecast

610
FTUS42 KCAE 030200 AAA
TAFCAE
TAF AMD
KCAE 030232Z 0303/0324 VRB03KT P6SM SKC
     FM031700 22005KT P6SM FEW060=



Latest METAR

038
SAUS80 KWBC 031600
MTRCAE
METAR KCAE 031556Z 16003KT 10SM FEW050 25/07 A3019 RMK AO2 SLP223
T02500072


USA.gov is the U.S. government's official web portal to all federal, state and local government web resources and services.